Time;durP1;ratioP1;P1;durP2;ratioP2;P2;SDS_P1;SDS_P2;PMS_P1;PMS_P2;Temp;Humidity;BMP_temperature;BMP_pressure;BME280_temperature;BME280_humidity;BME280_pressure;Samples;Min_cycle;Max_cycle;Signal;HPM_P1;HPM_P2
2021/07/23 00:01:17;;;;;;;14.50;8.75;;;;;;;11.28;72.70;99878.13;1779473;79;20929;-78
2021/07/23 00:03:43;;;;;;;8.93;7.47;;;;;;;11.23;72.69;99872.30;1789456;79;20930;-78
2021/07/23 00:06:10;;;;;;;7.92;6.50;;;;;;;11.17;72.70;99864.73;1788842;79;21021;-78
2021/07/23 00:08:36;;;;;;;9.13;6.90;;;;;;;11.16;73.09;99866.97;1782150;79;20992;-78
2021/07/23 00:11:03;;;;;;;9.23;6.67;;;;;;;11.15;73.01;99862.20;1790145;79;21440;-78
2021/07/23 00:13:30;;;;;;;8.00;7.00;;;;;;;11.11;73.04;99868.94;1785790;79;21017;-78
2021/07/23 00:15:57;;;;;;;10.00;6.50;;;;;;;11.08;73.06;99865.17;1788852;79;21005;-79
2021/07/23 00:18:23;;;;;;;8.85;5.85;;;;;;;11.06;73.12;99864.39;1786214;79;21148;-79
2021/07/23 00:20:50;;;;;;;9.95;6.45;;;;;;;11.01;73.18;99860.70;1792031;79;21044;-78
2021/07/23 00:23:17;;;;;;;10.40;7.05;;;;;;;10.98;73.25;99864.30;1793358;79;21486;-78
2021/07/23 00:25:43;;;;;;;8.30;6.12;;;;;;;10.96;73.44;99860.91;1790550;79;20965;-78
2021/07/23 00:28:10;;;;;;;10.28;7.45;;;;;;;10.92;73.37;99859.38;1787066;79;21020;-78
2021/07/23 00:30:36;;;;;;;12.40;8.27;;;;;;;10.87;73.35;99856.58;1788117;79;20954;-78
2021/07/23 00:33:03;;;;;;;9.58;6.80;;;;;;;10.79;73.34;99862.16;1788431;79;20938;-78
2021/07/23 00:35:30;;;;;;;11.63;7.08;;;;;;;10.73;73.44;99860.67;1789569;79;21074;-79
2021/07/23 00:37:57;;;;;;;9.63;7.63;;;;;;;10.69;73.64;99860.87;1794078;79;20990;-78
2021/07/23 00:40:26;;;;;;;13.50;7.67;;;;;;;10.71;73.89;99861.66;1793241;79;21681;-79
2021/07/23 00:42:53;;;;;;;11.33;8.33;;;;;;;10.73;73.92;99859.36;1782888;79;20977;-78
2021/07/23 00:45:20;;;;;;;9.13;7.25;;;;;;;10.75;74.14;99857.97;1792576;79;21017;-79
2021/07/23 00:47:51;;;;;;;12.20;6.85;;;;;;;10.73;73.94;99858.05;1815066;78;21472;-78
2021/07/23 00:50:18;;;;;;;11.70;7.90;;;;;;;10.70;73.96;99849.52;1782388;79;20918;-79
2021/07/23 00:52:46;;;;;;;11.63;7.12;;;;;;;10.66;74.09;99850.56;1821372;78;21053;-79
2021/07/23 00:55:14;;;;;;;12.70;8.45;;;;;;;10.65;74.06;99852.33;1789611;78;21454;-79
2021/07/23 00:57:43;;;;;;;7.90;6.90;;;;;;;10.62;74.10;99852.94;1748300;79;21007;-79
2021/07/23 01:00:12;;;;;;;13.25;9.50;;;;;;;10.59;74.12;99857.84;1761326;80;21572;-78
2021/07/23 01:02:38;;;;;;;9.30;6.85;;;;;;;10.53;74.19;99851.13;1758878;80;21036;-79
2021/07/23 01:05:06;;;;;;;9.13;6.17;;;;;;;10.50;74.29;99859.11;1808352;78;20966;-78
2021/07/23 01:07:35;;;;;;;9.15;5.97;;;;;;;10.45;74.38;99858.45;1802750;78;20975;-78
2021/07/23 01:10:04;;;;;;;11.43;8.10;;;;;;;10.43;74.49;99858.97;1801235;78;22269;-79
2021/07/23 01:12:31;;;;;;;10.03;7.28;;;;;;;10.39;74.48;99852.20;1798251;78;21466;-78
2021/07/23 01:14:59;;;;;;;8.90;7.15;;;;;;;10.37;74.62;99857.95;1799183;78;21012;-79
2021/07/23 01:17:27;;;;;;;10.98;8.53;;;;;;;10.48;75.19;99854.86;1792049;78;20902;-80
2021/07/23 01:20:05;;;;;;;13.20;6.92;;;;;;;10.59;74.89;99857.00;1805290;78;20882;-78
2021/07/23 01:22:33;;;;;;;11.80;8.70;;;;;;;10.61;74.93;99855.14;1798893;78;20908;-78
2021/07/23 01:25:02;;;;;;;16.15;8.78;;;;;;;10.68;75.04;99854.80;1798554;78;21102;-79
2021/07/23 01:27:30;;;;;;;10.82;6.95;;;;;;;10.64;74.72;99855.00;1757574;81;20965;-78
2021/07/23 01:30:09;;;;;;;11.75;7.58;;;;;;;10.59;74.81;99851.77;1800207;78;20977;-79
2021/07/23 01:32:37;;;;;;;10.98;7.25;;;;;;;10.52;74.75;99852.02;1809925;78;20934;-77
2021/07/23 01:35:06;;;;;;;7.25;6.40;;;;;;;10.42;74.74;99848.16;1802498;78;20971;-78
2021/07/23 01:37:34;;;;;;;8.83;6.95;;;;;;;10.33;74.77;99843.31;1797505;78;21022;-79
2021/07/23 01:40:00;;;;;;;;;;;;;;;10.24;74.89;99843.70;1802116;78;20975;-79
2021/07/23 01:42:29;;;;;;;9.40;6.30;;;;;;;10.19;75.12;99841.75;1799495;78;20070;-77
2021/07/23 01:44:57;;;;;;;11.33;8.18;;;;;;;10.16;75.21;99843.19;1807323;78;21243;-78
2021/07/23 01:47:24;;;;;;;12.45;7.55;;;;;;;10.13;75.31;99841.55;1803364;78;21094;-77
2021/07/23 01:49:52;;;;;;;14.23;8.75;;;;;;;10.13;75.43;99840.71;1801838;78;21069;-79
2021/07/23 01:52:18;;;;;;;8.48;7.12;;;;;;;10.16;75.57;99838.81;1801168;78;20958;-79
2021/07/23 01:54:45;;;;;;;10.95;7.60;;;;;;;10.19;75.77;99843.05;1806586;78;20994;-78
2021/07/23 01:57:12;;;;;;;8.70;7.80;;;;;;;10.40;76.09;99842.14;1808568;78;20879;-79
2021/07/23 01:59:39;;;;;;;9.55;7.30;;;;;;;10.40;76.09;99842.14;1802855;78;20933;-79
2021/07/23 02:02:05;;;;;;;11.83;8.27;;;;;;;10.50;75.99;99846.05;1779447;79;22139;-78
2021/07/23 02:04:34;;;;;;;9.05;7.00;;;;;;;10.53;75.87;99843.30;1796915;78;20974;-78
2021/07/23 02:07:01;;;;;;;9.78;6.95;;;;;;;10.57;75.81;99840.55;1795544;79;20979;-78
2021/07/23 02:09:28;;;;;;;8.85;6.53;;;;;;;10.55;75.75;99846.28;1791682;79;20915;-79
2021/07/23 02:11:55;;;;;;;9.10;5.58;;;;;;;10.52;75.73;99842.89;1793976;79;20990;-78
2021/07/23 02:14:22;;;;;;;10.32;6.42;;;;;;;10.43;75.50;99846.38;1797507;79;21095;-79
2021/07/23 02:16:48;;;;;;;10.30;6.90;;;;;;;10.35;75.61;99844.11;1804226;78;21044;-78
2021/07/23 02:19:15;;;;;;;8.27;6.27;;;;;;;10.28;75.68;99846.61;1778778;79;21016;-78
2021/07/23 02:21:41;;;;;;;10.40;6.30;;;;;;;10.19;75.62;99843.05;1809917;78;20949;-78
2021/07/23 19:21:37;;;;;;;13.00;6.72;;;;;;;17.02;61.57;99743.78;1862868;73;22607;-82
2021/07/23 19:24:05;;;;;;;;;;;;;;;16.93;61.77;99740.02;1834539;75;21018;-81
2021/07/23 19:26:32;;;;;;;21.42;9.85;;;;;;;16.88;62.08;99741.31;1833880;75;21077;-81
2021/07/23 19:28:58;;;;;;;24.25;8.25;;;;;;;16.80;61.89;99743.18;1847678;75;21590;-81
2021/07/23 19:31:25;;;;;;;20.07;9.17;;;;;;;16.74;62.05;99740.48;1828342;75;20979;-84
2021/07/23 19:33:53;;;;;;;13.50;8.50;;;;;;;16.67;62.17;99741.89;1839567;75;20914;-83
2021/07/23 19:36:20;;;;;;;14.75;8.25;;;;;;;16.62;62.39;99738.75;1842428;75;20945;-83
2021/07/23 19:38:47;;;;;;;12.63;7.42;;;;;;;16.57;62.39;99735.59;1846877;75;22000;-85
2021/07/23 19:41:13;;;;;;;17.17;6.72;;;;;;;16.53;62.52;99739.41;1847036;75;21535;-84
2021/07/23 19:43:40;;;;;;;10.40;5.67;;;;;;;16.48;62.58;99736.27;1845830;75;20964;-83
2021/07/23 19:46:07;;;;;;;13.30;5.97;;;;;;;16.45;62.66;99741.75;1852454;75;21330;-85
2021/07/23 19:48:35;;;;;;;;;;;;;;;16.39;62.80;99744.83;1848597;75;21015;-77
2021/07/23 19:51:02;;;;;;;10.35;5.33;;;;;;;16.36;63.15;99745.05;1835503;75;21161;-84
2021/07/23 19:53:29;;;;;;;12.20;5.28;;;;;;;16.27;63.04;99738.61;1832550;75;20994;-84
2021/07/23 19:55:58;;;;;;;11.55;5.95;;;;;;;16.18;63.08;99737.47;1805554;75;21060;-84
2021/07/23 19:58:27;;;;;;;12.43;5.70;;;;;;;16.10;63.27;99745.06;1842665;75;21016;-85
2021/07/23 20:00:53;;;;;;;9.43;5.60;;;;;;;16.02;63.41;99744.30;1797500;77;21057;-85
2021/07/23 20:03:19;;;;;;;9.67;5.40;;;;;;;15.95;63.50;99738.25;1798045;78;21094;-84
2021/07/23 20:05:46;;;;;;;14.53;5.60;;;;;;;15.87;63.56;99744.87;1838165;77;20964;-86
2021/07/23 20:08:13;;;;;;;16.27;6.33;;;;;;;15.78;63.74;99743.36;1830748;77;20974;-85
2021/07/23 20:10:42;;;;;;;10.03;6.33;;;;;;;15.74;63.90;99751.95;1828478;77;21465;-84
2021/07/23 20:13:08;;;;;;;8.27;6.03;;;;;;;15.71;64.06;99746.89;1809179;77;21001;-85
2021/07/23 20:15:35;;;;;;;12.13;5.70;;;;;;;15.67;64.19;99748.00;1841010;77;21141;-85
2021/07/23 20:18:04;;;;;;;15.20;6.33;;;;;;;15.61;64.34;99746.62;1839609;77;21026;-84
2021/07/23 20:20:32;;;;;;;10.15;6.25;;;;;;;15.56;64.35;99747.88;1839991;77;21041;-85
2021/07/23 20:22:58;;;;;;;10.20;6.10;;;;;;;15.50;64.46;99750.94;1836999;77;21523;-85
2021/07/23 20:25:25;;;;;;;11.63;5.78;;;;;;;15.41;64.64;99749.28;1836453;77;20932;-84
2021/07/23 20:27:52;;;;;;;15.95;6.00;;;;;;;15.34;64.82;99750.63;1837344;77;21052;-85
2021/07/23 20:30:18;;;;;;;14.90;5.50;;;;;;;15.26;64.91;99748.97;1834477;77;20990;-80
2021/07/23 20:32:45;;;;;;;10.20;5.90;;;;;;;15.17;64.98;99758.31;1833836;77;20922;-80
2021/07/23 20:35:12;;;;;;;13.17;5.07;;;;;;;15.07;65.11;99753.31;1836950;77;21535;-83
2021/07/23 20:37:41;;;;;;;10.48;5.20;;;;;;;14.95;65.33;99752.30;1841347;77;21046;-82
2021/07/23 20:40:09;;;;;;;13.13;5.58;;;;;;;14.88;65.39;99757.59;1840490;77;21451;-83
2021/07/23 20:42:36;;;;;;;10.18;5.00;;;;;;;14.82;65.52;99760.62;1828113;76;20958;-83
2021/07/23 20:45:04;;;;;;;13.00;5.42;;;;;;;14.77;65.76;99757.45;1830512;76;20958;-82
2021/07/23 20:47:32;;;;;;;10.48;5.87;;;;;;;14.72;65.90;99754.26;1837216;76;20981;-82
2021/07/23 20:49:58;;;;;;;11.05;5.70;;;;;;;14.66;65.95;99759.91;1835698;76;21064;-82
2021/07/23 20:52:25;;;;;;;10.37;5.37;;;;;;;14.60;65.99;99758.52;1840754;76;21060;-81
2021/07/23 20:54:51;;;;;;;14.73;5.70;;;;;;;14.59;66.22;99756.84;1838596;76;21329;-82
2021/07/23 20:57:18;;;;;;;12.40;5.87;;;;;;;14.60;66.41;99757.68;1835038;76;21945;-82
2021/07/23 20:59:46;;;;;;;12.43;7.93;;;;;;;14.59;66.57;99754.22;1835553;77;21565;-83
2021/07/23 21:02:12;;;;;;;;;;;;;;;14.58;66.50;99751.67;1840385;77;21771;-82
2021/07/23 21:04:39;;;;;;;14.00;7.30;;;;;;;14.53;66.79;99756.73;1839518;76;21090;-83
2021/07/23 21:07:05;;;;;;;10.30;7.23;;;;;;;14.32;66.65;99738.36;1837109;76;20909;-82
2021/07/23 21:09:34;;;;;;;12.50;7.07;;;;;;;14.32;66.65;99738.36;1836026;77;21484;-81
2021/07/23 21:12:01;;;;;;;14.73;6.92;;;;;;;14.37;66.99;99769.13;1809236;77;21028;-83
2021/07/23 21:14:28;;;;;;;12.30;7.05;;;;;;;14.35;67.09;99764.44;1835651;77;20875;-85
2021/07/23 21:16:54;;;;;;;11.43;7.47;;;;;;;14.29;67.23;99763.03;1836888;77;21504;-83
2021/07/23 21:19:22;;;;;;;16.30;7.65;;;;;;;14.23;67.33;99769.14;1835589;77;21002;-84
2021/07/23 21:21:49;;;;;;;18.67;6.97;;;;;;;14.18;67.41;99773.35;1838175;77;21086;-83
2021/07/23 21:24:16;;;;;;;11.88;6.40;;;;;;;14.15;67.62;99771.39;1834750;77;22144;-82
2021/07/23 21:26:43;;;;;;;10.75;6.10;;;;;;;14.10;67.71;99775.60;1836304;77;21444;-84
2021/07/23 21:29:09;;;;;;;9.63;7.00;;;;;;;14.04;67.79;99775.51;1840740;77;21080;-83
2021/07/23 21:31:36;;;;;;;13.93;7.27;;;;;;;14.01;67.96;99770.92;1835713;77;20926;-84
2021/07/23 21:34:03;;;;;;;13.53;7.27;;;;;;;13.99;67.94;99774.94;1843491;77;20970;-82
2021/07/23 21:36:30;;;;;;;14.43;7.00;;;;;;;13.94;68.04;99775.67;1838926;77;20980;-82
2021/07/23 21:38:56;;;;;;;12.50;6.15;;;;;;;13.91;68.31;99771.92;1838734;77;20984;-83
2021/07/23 21:41:23;;;;;;;10.60;5.97;;;;;;;13.93;68.36;99778.41;1841379;77;21454;-83
2021/07/23 21:43:50;;;;;;;13.10;6.27;;;;;;;13.90;68.45;99779.44;1837460;77;20930;-85
2021/07/23 21:46:19;;;;;;;11.43;7.22;;;;;;;13.86;68.52;99779.23;1834391;77;21697;-84
2021/07/23 21:48:46;;;;;;;14.58;7.35;;;;;;;13.79;68.61;99783.17;1835535;77;20939;-83
2021/07/23 21:51:13;;;;;;;9.85;6.45;;;;;;;13.72;68.65;99777.90;1838138;77;26843;-85
2021/07/23 21:53:40;;;;;;;14.98;6.60;;;;;;;13.70;68.83;99774.55;1840753;77;21954;-85
2021/07/23 21:56:06;;;;;;;10.65;7.50;;;;;;;13.64;68.94;99776.59;1839672;77;21467;-84
2021/07/23 21:58:33;;;;;;;14.63;6.28;;;;;;;13.63;69.05;99775.35;1834955;77;21039;-83
2021/07/23 22:01:00;;;;;;;11.20;6.92;;;;;;;13.61;69.19;99778.53;1834420;77;21051;-84
2021/07/23 22:03:29;;;;;;;12.45;6.70;;;;;;;13.69;69.48;99778.08;1835932;77;20924;-83
2021/07/23 22:05:54;;;;;;;13.25;6.28;;;;;;;13.70;69.28;99779.80;1838828;77;21023;-85
2021/07/23 22:08:21;;;;;;;8.60;5.97;;;;;;;13.75;69.64;99776.40;1834963;77;20962;-82
2021/07/23 22:10:48;;;;;;;10.13;6.53;;;;;;;13.78;69.63;99778.40;1839396;77;21032;-83
2021/07/23 22:13:15;;;;;;;11.25;5.95;;;;;;;13.79;69.45;99777.92;1839624;77;20919;-80
2021/07/23 22:15:42;;;;;;;11.93;6.30;;;;;;;13.71;69.31;99773.59;1842074;76;21547;-84
2021/07/23 22:18:08;;;;;;;10.58;6.00;;;;;;;13.62;69.42;99777.61;1839651;76;21427;-83
2021/07/23 22:20:35;;;;;;;12.37;6.53;;;;;;;13.56;69.56;99777.98;1829384;77;20886;-83
2021/07/23 22:23:01;;;;;;;9.75;5.83;;;;;;;13.48;69.66;99777.58;1812475;77;21055;-83
2021/07/23 22:25:30;;;;;;;10.63;6.90;;;;;;;13.38;69.64;99774.63;1816439;77;20966;-84
2021/07/23 22:27:56;;;;;;;12.00;6.35;;;;;;;13.26;69.68;99780.59;1774009;77;21527;-83
2021/07/23 22:30:23;;;;;;;9.67;6.43;;;;;;;13.26;69.68;99780.59;1815510;77;21090;-83
2021/07/23 22:32:50;;;;;;;10.88;6.58;;;;;;;13.21;70.07;99779.03;1810249;77;21585;-82
2021/07/23 22:35:16;;;;;;;9.78;6.20;;;;;;;13.24;70.21;99779.80;1813106;77;21547;-83
2021/07/23 22:37:43;;;;;;;11.68;6.05;;;;;;;13.25;70.32;99782.34;1811267;77;20977;-83
2021/07/23 22:40:11;;;;;;;11.78;6.28;;;;;;;13.19;70.27;99782.23;1797541;78;20973;-82
2021/07/23 22:42:38;;;;;;;10.98;6.75;;;;;;;13.11;70.33;99776.58;1795650;78;21199;-82
2021/07/23 22:45:07;;;;;;;13.43;6.63;;;;;;;13.07;70.44;99782.06;1795151;77;20968;-82
2021/07/23 22:47:35;;;;;;;14.85;6.55;;;;;;;13.04;70.50;99776.53;1796954;78;20986;-83
2021/07/23 22:50:01;;;;;;;10.28;6.35;;;;;;;13.02;70.63;99777.08;1796445;78;21406;-84
2021/07/23 22:52:28;;;;;;;15.53;7.87;;;;;;;13.02;70.78;99773.14;1804869;78;21042;-82
2021/07/23 22:54:55;;;;;;;10.17;6.40;;;;;;;13.00;70.80;99778.95;1801025;78;21546;-84
2021/07/23 22:57:21;;;;;;;15.10;7.35;;;;;;;12.98;70.76;99774.27;1801196;76;21109;-84
2021/07/23 22:59:48;;;;;;;15.43;6.87;;;;;;;12.97;70.75;99781.75;1796641;78;20948;-83
2021/07/23 23:02:14;;;;;;;10.77;6.87;;;;;;;12.89;70.83;99780.02;1797137;76;20970;-85
2021/07/23 23:04:41;;;;;;;12.63;6.13;;;;;;;12.89;70.83;99780.02;1793554;78;21075;-85
2021/07/23 23:07:08;;;;;;;14.58;6.40;;;;;;;12.83;70.99;99783.84;1800046;77;21080;-83
2021/07/23 23:09:35;;;;;;;13.45;7.08;;;;;;;12.81;71.20;99779.61;1798092;78;20976;-83
2021/07/23 23:12:01;;;;;;;16.02;7.35;;;;;;;12.80;71.37;99781.83;1811458;77;20879;-84
2021/07/23 23:14:29;;;;;;;11.48;7.22;;;;;;;12.81;71.27;99780.92;1815738;77;21559;-85
2021/07/23 23:16:56;;;;;;;14.30;7.35;;;;;;;12.74;71.35;99789.56;1796765;78;21504;-84
2021/07/23 23:19:22;;;;;;;12.98;6.85;;;;;;;12.72;71.36;99777.88;1804196;78;21586;-85
2021/07/23 23:21:49;;;;;;;9.08;6.28;;;;;;;12.72;71.51;99780.49;1790363;78;21098;-84
2021/07/23 23:24:15;;;;;;;9.90;6.20;;;;;;;12.70;71.52;99782.34;1792017;79;21531;-86
2021/07/23 23:26:42;;;;;;;10.67;7.20;;;;;;;12.65;71.85;99776.98;1756649;81;21049;-85
2021/07/23 23:29:11;;;;;;;15.72;7.00;;;;;;;12.65;71.85;99776.98;1779161;79;21494;-83
2021/07/23 23:31:38;;;;;;;12.13;6.62;;;;;;;12.62;71.74;99783.23;1792357;79;21129;-84
2021/07/23 23:34:05;;;;;;;11.12;6.72;;;;;;;12.60;71.94;99781.62;1755756;81;20994;-85
2021/07/23 23:36:32;;;;;;;10.23;6.90;;;;;;;12.55;71.89;99783.20;1792128;79;20993;-84
2021/07/23 23:38:59;;;;;;;17.37;6.85;;;;;;;12.53;72.01;99778.50;1758930;81;21017;-84
2021/07/23 23:41:25;;;;;;;10.33;7.00;;;;;;;12.49;72.17;99780.88;1794208;79;21611;-85
2021/07/23 23:43:52;;;;;;;10.98;5.65;;;;;;;12.47;72.14;99786.70;1794368;79;21106;-84
2021/07/23 23:46:19;;;;;;;17.55;6.20;;;;;;;12.38;72.10;99782.80;1784133;79;20990;-85
2021/07/23 23:48:45;;;;;;;9.00;5.37;;;;;;;12.26;72.09;99786.89;1788678;79;21050;-86
2021/07/23 23:51:13;;;;;;;7.55;5.45;;;;;;;12.15;72.19;99784.00;1788355;78;20895;-84
2021/07/23 23:53:39;;;;;;;10.30;5.72;;;;;;;12.10;72.34;99783.42;1794754;79;20969;-84
2021/07/23 23:56:08;;;;;;;9.93;6.37;;;;;;;12.05;72.40;99785.42;1795302;79;21116;-84
2021/07/23 23:58:38;;;;;;;9.70;5.83;;;;;;;12.01;72.63;99791.73;1758153;81;21523;-84
